Time;durP1;ratioP1;P1;durP2;ratioP2;P2;SDS_P1;SDS_P2;PMS_P1;PMS_P2;Temp;Humidity;BMP_temperature;BMP_pressure;BME280_temperature;BME280_humidity;BME280_pressure;Samples;Min_cycle;Max_cycle;Signal;HPM_P1;HPM_P2
2023/07/09 00:01:50;;;;;;;;;;;;;;;28.43;42.95;101002.98;103915;1283;62060;-81
2023/07/09 00:04:16;;;;;;;;;;;;;;;28.43;43.17;101006.85;104098;1283;62187;-81
2023/07/09 00:06:41;;;;;;;;;;;;;;;28.44;43.11;101006.59;103871;1283;62298;-81
2023/07/09 00:09:14;;;;;;;;;;;;;;;28.44;43.00;101008.96;103846;1284;62255;-81
2023/07/09 00:11:40;;;;;;;;;;;;;;;28.43;42.97;101009.16;103858;1283;63584;-81
2023/07/09 00:14:06;;;;;;;;;;;;;;;28.44;43.05;101009.52;103900;1283;62910;-81
2023/07/09 00:16:31;;;;;;;;;;;;;;;28.43;43.09;101006.98;103203;1284;63013;-81
2023/07/09 00:18:57;;;;;;;;;;;;;;;28.43;43.14;101010.80;103133;1284;60961;-81
2023/07/09 00:21:22;;;;;;;;;;;;;;;28.43;43.13;101014.59;103081;1284;62188;-82
2023/07/09 00:23:51;;;;;;;;;;;;;;;28.42;43.05;101019.36;103090;1284;62184;-82
2023/07/09 00:26:16;;;;;;;;;;;;;;;28.43;43.20;101020.09;103076;1285;67397;-82
2023/07/09 00:28:42;;;;;;;;;;;;;;;28.43;42.95;101022.80;103078;1285;62960;-81
2023/07/09 00:31:13;;;;;;;;;;;;;;;28.42;42.89;101017.08;103121;1284;61071;-81
2023/07/09 00:33:38;;;;;;;;;;;;;;;28.43;43.01;101019.74;103141;1284;64608;-81
2023/07/09 00:36:05;;;;;;;;;;;;;;;28.42;42.96;101017.39;103177;1285;62080;-81
2023/07/09 00:38:30;;;;;;;;;;;;;;;28.42;42.97;101019.23;103035;1285;62185;-81
2023/07/09 00:40:59;;;;;;;;;;;;;;;28.42;43.02;101018.20;103044;1284;62179;-81
2023/07/09 00:43:24;;;;;;;;;;;;;;;28.42;43.03;101014.74;103141;1288;62969;-81
2023/07/09 00:46:08;;;;;;;;;;;;;;;28.42;43.14;101016.95;102987;1290;62184;-81
2023/07/09 00:48:34;;;;;;;;;;;;;;;28.41;43.02;101013.52;103004;1285;60874;-81
2023/07/09 00:50:59;;;;;;;;;;;;;;;28.41;43.16;101016.80;103080;1285;62881;-81
2023/07/09 00:53:29;;;;;;;;;;;;;;;28.41;43.07;101017.52;102960;1285;60899;-81
2023/07/09 00:56:06;;;;;;;;;;;;;;;28.41;42.86;101017.38;103231;1283;66680;-81
2023/07/09 00:58:31;;;;;;;;;;;;;;;28.41;43.11;101019.55;103147;1283;62111;-81
2023/07/09 01:01:01;;;;;;;;;;;;;;;28.40;43.05;101020.50;102916;1284;62203;-81
2023/07/09 01:03:29;;;;;;;;;;;;;;;28.41;42.94;101016.49;102985;1285;64978;-81
2023/07/09 01:05:55;;;;;;;;;;;;;;;28.40;42.94;101014.90;103136;1284;67730;-81
2023/07/09 01:08:20;;;;;;;;;;;;;;;28.40;43.08;101015.45;103148;1283;62154;-81
2023/07/09 01:10:46;;;;;;;;;;;;;;;28.40;43.03;101013.30;103044;1284;60821;-81
2023/07/09 01:13:11;;;;;;;;;;;;;;;28.40;43.11;101013.65;103179;1285;62245;-81
2023/07/09 01:15:40;;;;;;;;;;;;;;;28.39;43.05;101015.00;103180;1284;61402;-81
2023/07/09 01:18:05;;;;;;;;;;;;;;;28.40;43.02;101018.02;103114;1283;67437;-81
2023/07/09 01:20:30;;;;;;;;;;;;;;;28.39;42.82;101023.50;103261;1284;60906;-81
2023/07/09 01:22:56;;;;;;;;;;;;;;;28.39;42.91;101023.91;103024;1285;62135;-81
2023/07/09 01:25:23;;;;;;;;;;;;;;;28.39;42.98;101030.59;103041;1289;62973;-81
2023/07/09 01:27:49;;;;;;;;;;;;;;;28.39;42.90;101029.86;102997;1285;62237;-81
2023/07/09 01:30:22;;;;;;;;;;;;;;;28.39;42.89;101026.98;103147;1285;62166;-81
2023/07/09 01:32:49;;;;;;;;;;;;;;;28.39;42.83;101028.64;103020;1285;61053;-81
2023/07/09 01:35:15;;;;;;;;;;;;;;;28.39;43.08;101031.71;103017;1285;64740;-81
2023/07/09 01:37:41;;;;;;;;;;;;;;;28.38;43.05;101032.48;102881;1285;62378;-81
2023/07/09 01:40:06;;;;;;;;;;;;;;;28.38;42.85;101033.20;102998;1285;63055;-81
2023/07/09 01:42:32;;;;;;;;;;;;;;;28.38;43.03;101035.20;103270;1284;60188;-81
2023/07/09 01:44:57;;;;;;;;;;;;;;;28.38;43.14;101036.68;102816;1285;63022;-81
2023/07/09 01:47:23;;;;;;;;;;;;;;;28.38;42.84;101042.49;103049;1289;61066;-81
2023/07/09 01:49:49;;;;;;;;;;;;;;;28.37;42.93;101042.70;103010;1285;67816;-81
2023/07/09 01:52:16;;;;;;;;;;;;;;;28.38;42.93;101045.58;103173;1285;60832;-81
2023/07/09 01:54:41;;;;;;;;;;;;;;;28.37;42.91;101049.96;102926;1288;62202;-81
2023/07/09 01:57:19;;;;;;;;;;;;;;;28.37;43.00;101050.71;103071;1285;62917;-81
2023/07/09 01:59:45;;;;;;;;;;;;;;;28.37;43.01;101055.05;103193;1287;66765;-81
2023/07/09 02:02:18;;;;;;;;;;;;;;;28.37;43.02;101059.59;103152;1285;60842;-81
2023/07/09 02:04:44;;;;;;;;;;;;;;;28.37;43.13;101060.66;103161;1284;62173;-81
2023/07/09 02:07:10;;;;;;;;;;;;;;;28.37;43.10;101065.95;103055;1283;60828;-81
2023/07/09 02:09:35;;;;;;;;;;;;;;;28.36;43.01;101065.24;103134;1284;62201;-81
2023/07/09 02:12:02;;;;;;;;;;;;;;;28.36;42.90;101069.60;103025;1283;60931;-81
2023/07/09 02:14:28;;;;;;;;;;;;;;;28.36;42.94;101072.34;103256;1284;62974;-81
2023/07/09 02:16:53;;;;;;;;;;;;;;;28.36;42.95;101075.77;103167;1284;63642;-81
2023/07/09 02:19:18;;;;;;;;;;;;;;;28.36;42.96;101076.16;103079;1285;62223;-81
2023/07/09 02:21:44;;;;;;;;;;;;;;;28.36;42.97;101083.43;103215;1285;62074;-81
2023/07/09 02:24:09;;;;;;;;;;;;;;;28.36;43.07;101083.44;103084;1287;62654;-81
2023/07/09 02:26:35;;;;;;;;;;;;;;;28.36;42.84;101087.39;103278;1284;60876;-81
2023/07/09 02:29:00;;;;;;;;;;;;;;;28.36;42.86;101081.23;103048;1285;62261;-81
2023/07/09 02:31:29;;;;;;;;;;;;;;;28.36;42.89;101086.48;103230;1283;62190;-81
2023/07/09 02:33:55;;;;;;;;;;;;;;;28.35;42.96;101086.89;103134;1284;66713;-81
2023/07/09 02:36:21;;;;;;;;;;;;;;;28.35;43.03;101087.46;103101;1288;62076;-81
2023/07/09 02:38:46;;;;;;;;;;;;;;;28.35;43.12;101089.43;103190;1283;62205;-81
2023/07/09 02:41:11;;;;;;;;;;;;;;;28.35;43.07;101094.52;103171;1285;63016;-81
2023/07/09 02:43:37;;;;;;;;;;;;;;;28.34;43.03;101096.92;103183;1284;62182;-81
2023/07/09 02:46:03;;;;;;;;;;;;;;;28.35;42.89;101095.27;103062;1287;67632;-81
2023/07/09 02:48:29;;;;;;;;;;;;;;;28.34;42.95;101094.41;103162;1284;62964;-81
2023/07/09 02:50:54;;;;;;;;;;;;;;;28.34;42.88;101091.70;103143;1285;60880;-81
2023/07/09 02:53:19;;;;;;;;;;;;;;;28.34;42.94;101092.24;103143;1283;63062;-81
2023/07/09 02:55:45;;;;;;;;;;;;;;;28.34;43.00;101092.61;103161;1287;60796;-81
2023/07/09 02:58:10;;;;;;;;;;;;;;;28.34;42.97;101095.67;103066;1290;62971;-81
2023/07/09 03:00:36;;;;;;;;;;;;;;;28.34;42.86;101096.95;103055;1283;60911;-81
2023/07/09 03:03:01;;;;;;;;;;;;;;;28.34;43.02;101098.06;103060;1287;62355;-81
2023/07/09 03:05:27;;;;;;;;;;;;;;;28.34;42.83;101100.04;103066;1289;62250;-81
2023/07/09 03:07:52;;;;;;;;;;;;;;;28.34;43.00;101099.13;103327;1283;62937;-81
2023/07/09 03:10:17;;;;;;;;;;;;;;;28.34;42.91;101101.54;103190;1284;67664;-81
2023/07/09 03:12:43;;;;;;;;;;;;;;;28.34;42.96;101102.45;103046;1285;62091;-81
2023/07/09 03:15:08;;;;;;;;;;;;;;;28.34;43.05;101103.88;103089;1283;62741;-81
2023/07/09 03:17:34;;;;;;;;;;;;;;;28.34;42.93;101096.85;103304;1284;62301;-81
2023/07/09 03:19:59;;;;;;;;;;;;;;;28.34;43.02;101098.77;103187;1284;62190;-81
2023/07/09 03:22:25;;;;;;;;;;;;;;;28.34;42.86;101097.94;103062;1286;62272;-82
2023/07/09 03:24:50;;;;;;;;;;;;;;;28.34;42.92;101097.19;103038;1284;62020;-82
2023/07/09 03:27:15;;;;;;;;;;;;;;;28.34;42.85;101096.65;103173;1283;62265;-82
2023/07/09 03:29:41;;;;;;;;;;;;;;;28.34;42.90;101099.73;103111;1285;63113;-82
2023/07/09 03:32:07;;;;;;;;;;;;;;;28.34;42.70;101103.52;103089;1284;62147;-81
2023/07/09 03:34:32;;;;;;;;;;;;;;;28.34;42.87;101106.59;103087;1285;67700;-81
2023/07/09 03:36:58;;;;;;;;;;;;;;;28.34;42.90;101106.22;103157;1283;62225;-81
2023/07/09 03:39:23;;;;;;;;;;;;;;;28.34;42.85;101103.88;103006;1289;60872;-81
2023/07/09 03:41:49;;;;;;;;;;;;;;;28.34;42.90;101102.92;103032;1285;62235;-81
2023/07/09 03:44:15;;;;;;;;;;;;;;;28.34;42.76;101103.71;103227;1284;60921;-81
2023/07/09 03:46:40;;;;;;;;;;;;;;;28.34;42.99;101102.79;103331;1284;67389;-81
2023/07/09 03:49:05;;;;;;;;;;;;;;;28.34;42.95;101102.59;103086;1283;62192;-81
2023/07/09 03:51:31;;;;;;;;;;;;;;;28.34;43.05;101098.45;103108;1285;63109;-81
2023/07/09 03:53:56;;;;;;;;;;;;;;;28.34;42.90;101102.63;103093;1289;60940;-81
2023/07/09 03:56:22;;;;;;;;;;;;;;;28.34;42.99;101103.16;103265;1284;63066;-81
2023/07/09 03:58:47;;;;;;;;;;;;;;;28.34;42.94;101106.77;102986;1283;60925;-81
2023/07/09 04:01:13;;;;;;;;;;;;;;;28.34;42.81;101108.23;103099;1284;62293;-81
2023/07/09 04:03:38;;;;;;;;;;;;;;;28.34;42.92;101107.48;103131;1285;61261;-81
2023/07/09 04:06:03;;;;;;;;;;;;;;;28.34;42.80;101104.36;103334;1284;63261;-81
2023/07/09 04:08:29;;;;;;;;;;;;;;;28.35;42.82;101103.81;103086;1283;64043;-81
2023/07/09 04:10:56;;;;;;;;;;;;;;;28.35;42.89;101103.98;103118;1285;62160;-81
2023/07/09 04:13:22;;;;;;;;;;;;;;;28.35;43.00;101103.61;103090;1285;62084;-81
2023/07/09 04:15:48;;;;;;;;;;;;;;;28.35;42.91;101107.17;103185;1283;62173;-81
2023/07/09 04:18:13;;;;;;;;;;;;;;;28.35;43.09;101106.43;103060;1283;62215;-81
2023/07/09 04:20:39;;;;;;;;;;;;;;;28.36;42.98;101107.30;103050;1285;62184;-81
2023/07/09 04:23:05;;;;;;;;;;;;;;;28.36;42.94;101104.27;103142;1285;62196;-81
2023/07/09 04:25:31;;;;;;;;;;;;;;;28.36;42.64;101108.38;103241;1288;62195;-81
2023/07/09 04:27:56;;;;;;;;;;;;;;;28.36;42.83;101108.14;103136;1283;63049;-81
2023/07/09 04:30:22;;;;;;;;;;;;;;;28.37;42.88;101112.80;103095;1289;62183;-81
2023/07/09 04:32:47;;;;;;;;;;;;;;;28.38;42.96;101109.83;103158;1285;62986;-81
2023/07/09 04:35:13;;;;;;;;;;;;;;;28.38;42.63;101108.84;103165;1285;62199;-81
2023/07/09 04:37:39;;;;;;;;;;;;;;;28.39;42.76;101111.33;103180;1283;60909;-81
2023/07/09 04:40:06;;;;;;;;;;;;;;;28.39;42.60;101115.80;103115;1285;62153;-81
2023/07/09 04:42:32;;;;;;;;;;;;;;;28.40;42.82;101112.81;103177;1286;64762;-81
2023/07/09 04:44:57;;;;;;;;;;;;;;;28.41;42.86;101109.84;103120;1287;63078;-81
2023/07/09 04:47:23;;;;;;;;;;;;;;;28.42;42.96;101112.86;103115;1284;60956;-81
2023/07/09 04:49:48;;;;;;;;;;;;;;;28.43;42.90;101112.02;103134;1287;62745;-81
2023/07/09 04:52:15;;;;;;;;;;;;;;;28.44;42.90;101109.59;103232;1285;62058;-81
2023/07/09 04:54:43;;;;;;;;;;;;;;;28.44;42.94;101112.99;103075;1284;63863;-81
2023/07/09 04:57:10;;;;;;;;;;;;;;;28.46;42.99;101114.14;103028;1290;66617;-81
2023/07/09 04:59:35;;;;;;;;;;;;;;;28.47;43.07;101114.16;103161;1284;62043;-81
2023/07/09 05:02:01;;;;;;;;;;;;;;;28.48;42.88;101112.23;103110;1284;62237;-81
2023/07/09 05:04:26;;;;;;;;;;;;;;;28.50;42.82;101109.93;102994;1288;63043;-81
2023/07/09 05:06:51;;;;;;;;;;;;;;;28.51;42.91;101110.18;103059;1290;62187;-81
2023/07/09 05:09:17;;;;;;;;;;;;;;;28.52;42.72;101109.38;102942;1289;67426;-82
2023/07/09 05:11:44;;;;;;;;;;;;;;;28.54;42.97;101107.00;103312;1285;62085;-82
2023/07/09 05:14:09;;;;;;;;;;;;;;;28.54;42.87;101105.64;103114;1284;62266;-82
2023/07/09 05:16:35;;;;;;;;;;;;;;;28.56;42.78;101104.81;103018;1286;62169;-82
2023/07/09 05:19:00;;;;;;;;;;;;;;;28.56;42.87;101102.21;103018;1284;62184;-82
2023/07/09 05:21:26;;;;;;;;;;;;;;;28.58;42.80;101101.67;103203;1284;62295;-82
2023/07/09 05:23:51;;;;;;;;;;;;;;;28.59;42.88;101101.79;102941;1285;62068;-82
2023/07/09 05:26:16;;;;;;;;;;;;;;;28.60;42.75;101099.88;103073;1288;62151;-81
2023/07/09 05:28:42;;;;;;;;;;;;;;;28.61;42.86;101097.94;103005;1285;63026;-81
2023/07/09 05:31:07;;;;;;;;;;;;;;;28.63;42.70;101093.81;103067;1284;62218;-81
2023/07/09 05:33:33;;;;;;;;;;;;;;;28.63;42.63;101095.77;102875;1289;62180;-81
2023/07/09 05:35:58;;;;;;;;;;;;;;;28.65;42.86;101097.64;103029;1289;60839;-81
2023/07/09 05:38:23;;;;;;;;;;;;;;;28.65;42.74;101096.09;102970;1284;62192;-81
2023/07/09 05:40:57;;;;;;;;;;;;;;;28.66;42.82;101096.39;103063;1289;60728;-81
2023/07/09 05:43:23;;;;;;;;;;;;;;;28.67;42.74;101097.17;103005;1289;68074;-81
2023/07/09 05:45:48;;;;;;;;;;;;;;;28.68;42.83;101094.91;103009;1286;62194;-82
2023/07/09 05:48:14;;;;;;;;;;;;;;;28.69;42.84;101097.00;103039;1289;62957;-82
2023/07/09 05:50:39;;;;;;;;;;;;;;;28.70;42.73;101097.63;103036;1289;62196;-82
2023/07/09 05:53:05;;;;;;;;;;;;;;;28.71;42.67;101097.71;102948;1286;62934;-82
2023/07/09 05:55:31;;;;;;;;;;;;;;;28.71;42.69;101098.57;102903;1290;62369;-82
2023/07/09 05:57:57;;;;;;;;;;;;;;;28.72;42.86;101099.40;103034;1285;60960;-82
2023/07/09 06:00:22;;;;;;;;;;;;;;;28.73;42.71;101098.25;103086;1287;62191;-82
2023/07/09 06:02:47;;;;;;;;;;;;;;;28.73;42.62;101101.68;103046;1287;62294;-82
2023/07/09 06:05:13;;;;;;;;;;;;;;;28.74;42.70;101101.59;103086;1286;60850;-82
2023/07/09 06:07:39;;;;;;;;;;;;;;;28.74;42.65;101094.83;102953;1288;67632;-81
2023/07/09 06:10:05;;;;;;;;;;;;;;;28.75;42.81;101088.59;103138;1285;62118;-81
2023/07/09 06:12:31;;;;;;;;;;;;;;;28.76;42.66;101089.95;103160;1288;62651;-81
2023/07/09 06:14:57;;;;;;;;;;;;;;;28.77;42.67;101089.36;103111;1289;63115;-81
2023/07/09 06:17:22;;;;;;;;;;;;;;;28.76;42.74;101084.67;103722;1285;62195;-81
2023/07/09 06:19:48;;;;;;;;;;;;;;;28.78;42.66;101086.00;103625;1288;63222;-81
2023/07/09 06:22:14;;;;;;;;;;;;;;;28.78;42.65;101085.77;103574;1288;62188;-81
2023/07/09 06:24:39;;;;;;;;;;;;;;;28.79;42.73;101087.89;103306;1283;62936;-81
2023/07/09 06:27:05;;;;;;;;;;;;;;;28.79;42.70;101085.70;103279;1285;60867;-81
2023/07/09 06:29:30;;;;;;;;;;;;;;;28.80;42.59;101092.28;103199;1289;62291;-81
2023/07/09 06:31:55;;;;;;;;;;;;;;;28.80;42.54;101089.74;103199;1287;62130;-81
2023/07/09 06:34:21;;;;;;;;;;;;;;;28.81;42.66;101084.27;103556;1283;63020;-81
2023/07/09 06:36:46;;;;;;;;;;;;;;;28.81;42.57;101084.61;103885;1287;61929;-81
2023/07/09 06:39:12;;;;;;;;;;;;;;;28.82;42.70;101084.00;103873;1283;62148;-81
2023/07/09 06:41:38;;;;;;;;;;;;;;;28.82;42.58;101084.17;103539;1289;62211;-81
2023/07/09 06:44:07;;;;;;;;;;;;;;;28.82;42.65;101079.24;103494;1283;62153;-81
2023/07/09 06:46:33;;;;;;;;;;;;;;;28.82;42.65;101071.23;103237;1286;62245;-81
2023/07/09 06:48:59;;;;;;;;;;;;;;;28.83;42.68;101071.38;103195;1289;62135;-81
2023/07/09 06:51:25;;;;;;;;;;;;;;;28.83;42.69;101068.08;103115;1283;62180;-81
2023/07/09 06:53:51;;;;;;;;;;;;;;;28.83;42.56;101062.98;103052;1288;62275;-81
2023/07/09 06:56:17;;;;;;;;;;;;;;;28.83;42.47;101062.28;103201;1284;62207;-81
2023/07/09 06:58:44;;;;;;;;;;;;;;;28.83;42.65;101062.48;103089;1283;62074;-81
2023/07/09 07:01:10;;;;;;;;;;;;;;;28.83;42.59;101063.88;103213;1283;62171;-81
2023/07/09 07:03:36;;;;;;;;;;;;;;;28.84;42.56;101065.67;103076;1288;62181;-81
2023/07/09 07:06:02;;;;;;;;;;;;;;;28.84;42.54;101067.62;103007;1289;62263;-81
2023/07/09 07:08:28;;;;;;;;;;;;;;;28.84;42.53;101066.59;102686;1283;663544;-81
2023/07/09 07:11:01;;;;;;;;;;;;;;;28.84;42.50;101068.02;103023;1289;62180;-81
2023/07/09 07:13:27;;;;;;;;;;;;;;;28.83;42.49;101070.40;103060;1283;67508;-81
2023/07/09 07:15:52;;;;;;;;;;;;;;;28.84;42.51;101069.09;103064;1288;60810;-81
2023/07/09 07:18:19;;;;;;;;;;;;;;;28.84;42.54;101066.36;102924;1283;62197;-81
2023/07/09 07:20:44;;;;;;;;;;;;;;;28.84;42.43;101063.30;103121;1283;60745;-81
2023/07/09 07:23:10;;;;;;;;;;;;;;;28.84;42.43;101064.20;103043;1283;62258;-81
2023/07/09 07:25:36;;;;;;;;;;;;;;;28.84;42.59;101063.11;103129;1288;60792;-81
2023/07/09 07:28:01;;;;;;;;;;;;;;;28.84;42.27;101067.66;103078;1289;62306;-81
2023/07/09 07:30:27;;;;;;;;;;;;;;;28.84;42.41;101065.30;103181;1283;60821;-81
2023/07/09 07:32:53;;;;;;;;;;;;;;;28.83;42.42;101064.79;103027;1289;62213;-81
2023/07/09 07:35:19;;;;;;;;;;;;;;;28.83;42.54;101058.10;103216;1283;60840;-81
2023/07/09 07:37:44;;;;;;;;;;;;;;;28.83;42.51;101058.65;103272;1283;62097;-81
2023/07/09 07:40:10;;;;;;;;;;;;;;;28.83;42.45;101054.16;103192;1284;60727;-81
2023/07/09 07:42:35;;;;;;;;;;;;;;;28.83;42.35;101049.63;103204;1283;62353;-81
2023/07/09 07:45:01;;;;;;;;;;;;;;;28.83;42.42;101060.14;103100;1283;62188;-81
2023/07/09 07:47:29;;;;;;;;;;;;;;;28.83;42.55;101048.38;103146;1283;63094;-81
2023/07/09 07:49:55;;;;;;;;;;;;;;;28.83;42.44;101046.58;103227;1283;62229;-81
2023/07/09 07:52:20;;;;;;;;;;;;;;;28.82;42.42;101055.00;103204;1285;62091;-81
2023/07/09 07:54:46;;;;;;;;;;;;;;;28.82;42.38;101051.73;103045;1283;62073;-81
2023/07/09 07:57:11;;;;;;;;;;;;;;;28.82;42.35;101044.30;103114;1285;62162;-81
2023/07/09 07:59:37;;;;;;;;;;;;;;;28.81;42.48;101042.88;103083;1288;62164;-81
2023/07/09 08:02:03;;;;;;;;;;;;;;;28.81;42.23;101044.23;103071;1285;62112;-81
2023/07/09 08:04:28;;;;;;;;;;;;;;;28.82;42.30;101047.39;103093;1283;62092;-81
2023/07/09 08:06:53;;;;;;;;;;;;;;;28.81;42.39;101042.36;103021;1283;62369;-81
2023/07/09 08:09:19;;;;;;;;;;;;;;;28.81;42.23;101043.28;103079;1283;61384;-81
2023/07/09 08:11:44;;;;;;;;;;;;;;;28.81;42.29;101042.73;103113;1284;63108;-81
2023/07/09 08:14:10;;;;;;;;;;;;;;;28.82;42.29;101041.02;103068;1283;62089;-81
2023/07/09 08:16:35;;;;;;;;;;;;;;;28.81;42.38;101039.10;103149;1283;62175;-81
2023/07/09 08:19:01;;;;;;;;;;;;;;;28.81;42.35;101038.90;103178;1283;60866;-81
2023/07/09 08:21:27;;;;;;;;;;;;;;;28.81;42.36;101036.02;102963;1289;62595;-81
2023/07/09 08:23:52;;;;;;;;;;;;;;;28.81;42.18;101043.24;102996;1285;62043;-81
2023/07/09 08:26:18;;;;;;;;;;;;;;;28.80;42.36;101042.47;103017;1286;60860;-81
2023/07/09 08:28:43;;;;;;;;;;;;;;;28.81;42.39;101039.71;103057;1287;62273;-81
2023/07/09 08:31:10;;;;;;;;;;;;;;;28.81;42.28;101039.30;103662;1286;62967;-81
2023/07/09 08:33:36;;;;;;;;;;;;;;;28.81;42.38;101035.09;103728;1286;62256;-81
2023/07/09 08:36:01;;;;;;;;;;;;;;;28.81;42.36;101034.76;103355;1286;60912;-81
2023/07/09 08:38:27;;;;;;;;;;;;;;;28.81;42.31;101036.96;103282;1288;63173;-81
2023/07/09 08:40:55;;;;;;;;;;;;;;;28.81;42.33;101036.39;103256;1286;62238;-81
2023/07/09 08:43:45;;;;;;;;;;;;;;;28.80;42.35;101035.39;103126;1286;63726;-81
2023/07/09 08:46:16;;;;;;;;;;;;;;;28.81;42.38;101035.73;102976;1286;67431;-81
2023/07/09 08:48:43;;;;;;;;;;;;;;;28.81;42.38;101036.76;103034;1285;60797;-81
2023/07/09 08:51:26;;;;;;;;;;;;;;;28.81;42.55;101040.80;102837;1287;63164;-81
2023/07/09 08:53:52;;;;;;;;;;;;;;;28.81;42.40;101037.70;102930;1284;73400;-81
2023/07/09 08:56:17;;;;;;;;;;;;;;;28.80;42.42;101043.18;102936;1287;62189;-81
2023/07/09 08:58:43;;;;;;;;;;;;;;;28.81;42.39;101039.17;102980;1289;60835;-81
2023/07/09 09:01:17;;;;;;;;;;;;;;;28.80;42.44;101040.48;102834;1286;62835;-81
2023/07/09 09:03:50;;;;;;;;;;;;;;;28.80;42.49;101043.77;102776;1286;63935;-81
2023/07/09 09:06:16;;;;;;;;;;;;;;;28.80;42.41;101039.05;102942;1286;66545;-81
2023/07/09 09:09:05;;;;;;;;;;;;;;;28.80;42.28;101040.01;102971;1286;60827;-81
2023/07/09 09:11:47;;;;;;;;;;;;;;;28.79;42.51;101042.23;102937;1288;60804;-81
2023/07/09 09:14:33;;;;;;;;;;;;;;;28.79;42.34;101042.78;103103;1286;64548;-81
2023/07/09 09:16:59;;;;;;;;;;;;;;;28.80;42.43;101039.83;102969;1284;67560;-81
2023/07/09 09:19:29;;;;;;;;;;;;;;;28.80;42.28;101042.18;102846;1286;62219;-81
2023/07/09 09:21:59;;;;;;;;;;;;;;;28.79;42.26;101046.02;103003;1286;61279;-81
2023/07/09 09:24:25;;;;;;;;;;;;;;;28.80;42.27;101041.80;103100;1290;66173;-81
2023/07/09 09:26:50;;;;;;;;;;;;;;;28.79;42.45;101039.70;102990;1286;62066;-81
2023/07/09 09:29:16;;;;;;;;;;;;;;;28.80;42.34;101033.31;102921;1287;62413;-81
2023/07/09 09:31:46;;;;;;;;;;;;;;;28.80;42.26;101034.16;102945;1286;62148;-81
2023/07/09 09:34:19;;;;;;;;;;;;;;;28.79;42.53;101027.38;103193;1287;63931;-81
2023/07/09 09:36:44;;;;;;;;;;;;;;;28.79;42.27;101027.91;102923;1288;67367;-81
2023/07/09 09:39:10;;;;;;;;;;;;;;;28.79;42.36;101028.86;102993;1290;62283;-81
2023/07/09 09:41:36;;;;;;;;;;;;;;;28.78;42.31;101025.80;103008;1284;63100;-81
2023/07/09 09:44:02;;;;;;;;;;;;;;;28.78;42.43;101024.06;103028;1289;62069;-81
2023/07/09 09:46:27;;;;;;;;;;;;;;;28.78;42.34;101026.06;103007;1284;62193;-81
2023/07/09 09:48:54;;;;;;;;;;;;;;;28.78;42.44;101021.00;103474;1286;62130;-81
2023/07/09 09:51:19;;;;;;;;;;;;;;;28.77;42.34;101023.03;103383;1286;61972;-81
2023/07/09 09:53:46;;;;;;;;;;;;;;;28.77;42.15;101023.38;103259;1287;60893;-81
2023/07/09 09:56:18;;;;;;;;;;;;;;;28.77;42.28;101025.94;103029;1286;62072;-81
2023/07/09 09:58:43;;;;;;;;;;;;;;;28.77;42.51;101023.61;102833;1286;67573;-81
2023/07/09 10:01:15;;;;;;;;;;;;;;;28.77;42.32;101021.06;102942;1290;60883;-81
2023/07/09 10:03:41;;;;;;;;;;;;;;;28.77;42.31;101017.09;102738;1287;62989;-81
2023/07/09 10:06:11;;;;;;;;;;;;;;;28.76;42.35;101019.13;103870;1287;60881;-81
2023/07/09 10:08:40;;;;;;;;;;;;;;;28.76;42.44;101020.92;103382;1286;67665;-81
2023/07/09 10:11:21;;;;;;;;;;;;;;;28.76;42.39;101015.31;103312;1284;62164;-81
2023/07/09 10:13:47;;;;;;;;;;;;;;;28.76;42.22;101010.26;103684;1284;62149;-81
2023/07/09 10:16:35;;;;;;;;;;;;;;;28.76;42.29;101010.31;103284;1284;60887;-81
2023/07/09 10:19:08;;;;;;;;;;;;;;;28.75;42.32;101012.70;103246;1285;66632;-81
2023/07/09 10:21:38;;;;;;;;;;;;;;;28.75;42.37;101006.75;103032;1288;62157;-81
2023/07/09 10:24:08;;;;;;;;;;;;;;;28.75;42.41;101003.33;103106;1284;62102;-81
2023/07/09 10:26:53;;;;;;;;;;;;;;;28.74;42.52;101008.63;103117;1284;64892;-81
2023/07/09 10:29:34;;;;;;;;;;;;;;;28.74;42.49;101011.54;103104;1284;66627;-81
2023/07/09 10:32:23;;;;;;;;;;;;;;;28.75;42.32;101009.33;103017;1290;62967;-81
2023/07/09 10:34:51;;;;;;;;;;;;;;;28.74;42.25;101001.92;103035;1284;60862;-81
2023/07/09 10:37:29;;;;;;;;;;;;;;;28.74;42.38;100997.07;103066;1284;64678;-82
2023/07/09 10:39:56;;;;;;;;;;;;;;;28.74;42.42;100993.84;103028;1284;67426;-81
2023/07/09 10:42:29;;;;;;;;;;;;;;;28.74;42.43;100994.59;102991;1285;62183;-81
2023/07/09 10:44:56;;;;;;;;;;;;;;;28.74;42.49;100994.22;103144;1284;62065;-82
2023/07/09 10:47:27;;;;;;;;;;;;;;;28.73;42.40;100991.56;103013;1284;64842;-82
2023/07/09 10:49:52;;;;;;;;;;;;;;;28.73;42.47;100991.02;103157;1284;67820;-81
2023/07/09 10:52:23;;;;;;;;;;;;;;;28.73;42.22;100985.95;102962;1286;60958;-81
2023/07/09 10:55:07;;;;;;;;;;;;;;;28.73;42.37;100983.06;103187;1284;62983;-81
2023/07/09 10:57:41;;;;;;;;;;;;;;;28.73;42.48;100987.79;103048;1284;64634;-81
2023/07/09 11:00:11;;;;;;;;;;;;;;;28.73;42.40;100982.55;102912;1284;67719;-81
2023/07/09 11:02:36;;;;;;;;;;;;;;;28.72;42.42;100978.58;103059;1284;63110;-81
2023/07/09 11:05:03;;;;;;;;;;;;;;;28.73;42.37;100979.13;103024;1286;60849;-81
2023/07/09 11:07:34;;;;;;;;;;;;;;;28.73;42.29;100981.07;103078;1284;63159;-81
2023/07/09 11:10:01;;;;;;;;;;;;;;;28.73;42.26;100981.27;103045;1284;66685;-81
2023/07/09 11:12:34;;;;;;;;;;;;;;;28.73;42.45;100980.55;102920;1286;62077;-81
2023/07/09 11:15:23;;;;;;;;;;;;;;;28.73;42.37;100980.73;102976;1285;60719;-81
2023/07/09 11:17:49;;;;;;;;;;;;;;;28.73;42.33;100974.02;103186;1284;64781;-81
2023/07/09 11:20:17;;;;;;;;;;;;;;;28.73;42.35;100966.79;103010;1284;62236;-81
2023/07/09 11:22:43;;;;;;;;;;;;;;;28.73;42.23;100961.88;103111;1285;60865;-81
2023/07/09 11:25:10;;;;;;;;;;;;;;;28.72;42.33;100954.68;103157;1286;63092;-81
2023/07/09 11:28:05;;;;;;;;;;;;;;;28.72;42.35;100973.15;103053;1284;62189;-81
2023/07/09 11:30:30;;;;;;;;;;;;;;;28.73;42.43;100970.58;102545;1291;67632;-81
2023/07/09 11:33:00;;;;;;;;;;;;;;;28.73;42.25;100972.59;102459;1290;63077;-81
2023/07/09 11:35:26;;;;;;;;;;;;;;;28.72;42.27;100966.45;102524;1291;62189;-81
2023/07/09 11:37:53;;;;;;;;;;;;;;;28.73;42.35;100960.77;102523;1290;62044;-81
2023/07/09 11:40:19;;;;;;;;;;;;;;;28.73;42.19;100963.88;102453;1289;62211;-81
2023/07/09 11:42:51;;;;;;;;;;;;;;;28.73;42.15;100966.91;102547;1289;61045;-81
2023/07/09 11:45:34;;;;;;;;;;;;;;;28.73;42.31;100962.23;102862;1289;62057;-81
2023/07/09 11:48:19;;;;;;;;;;;;;;;28.73;42.34;100960.05;102540;1295;63909;-81
2023/07/09 11:50:46;;;;;;;;;;;;;;;28.73;42.23;100957.13;102582;1292;67650;-81
2023/07/09 11:53:16;;;;;;;;;;;;;;;28.74;42.23;100951.13;102583;1291;60932;-81
2023/07/09 11:55:42;;;;;;;;;;;;;;;28.74;42.16;100948.18;102694;1290;62398;-81
2023/07/09 11:58:09;;;;;;;;;;;;;;;28.74;42.15;100943.66;102602;1289;63118;-81
2023/07/09 12:00:38;;;;;;;;;;;;;;;28.74;42.13;100942.20;102490;1292;60932;-81
2023/07/09 12:03:05;;;;;;;;;;;;;;;28.75;42.10;100944.68;102566;1289;60766;-81
2023/07/09 12:05:30;;;;;;;;;;;;;;;28.75;42.15;100944.23;102549;1289;63041;-81
2023/07/09 12:07:56;;;;;;;;;;;;;;;28.75;42.15;100945.57;102934;1284;62138;-81
2023/07/09 12:10:24;;;;;;;;;;;;;;;28.75;42.19;100946.38;102948;1284;62973;-81
2023/07/09 12:12:53;;;;;;;;;;;;;;;28.76;41.93;100945.63;103029;1284;60860;-81
2023/07/09 12:15:20;;;;;;;;;;;;;;;28.75;42.06;100940.61;102966;1284;60880;-81
2023/07/09 12:17:52;;;;;;;;;;;;;;;28.76;41.80;100936.20;102989;1286;63686;-81
2023/07/09 12:20:17;;;;;;;;;;;;;;;28.76;41.85;100941.05;102951;1286;66641;-81
2023/07/09 12:22:43;;;;;;;;;;;;;;;28.77;41.88;100945.55;102800;1288;60918;-81
2023/07/09 12:25:17;;;;;;;;;;;;;;;28.77;41.90;100940.08;102842;1287;62359;-81
2023/07/09 12:27:42;;;;;;;;;;;;;;;28.77;41.91;100936.11;102793;1287;63919;-81